Time;durP1;ratioP1;P1;durP2;ratioP2;P2;SDS_P1;SDS_P2;PMS_P1;PMS_P2;Temp;Humidity;BMP_temperature;BMP_pressure;BME280_temperature;BME280_humidity;BME280_pressure;Samples;Min_cycle;Max_cycle;Signal;HPM_P1;HPM_P2
2022/11/10 00:00:29;;;;;;;21.40;5.78;;;9.70;99.90;;;;;;5078565;28;20406;-60
2022/11/10 00:02:58;;;;;;;16.58;4.90;;;9.70;99.90;;;;;;5104462;28;20032;-63
2022/11/10 00:05:24;;;;;;;14.60;4.70;;;9.60;99.90;;;;;;5103626;28;20040;-60
2022/11/10 00:07:49;;;;;;;16.13;5.15;;;9.60;99.90;;;;;;5086091;28;20119;-59
2022/11/10 00:10:15;;;;;;;16.83;5.05;;;9.60;99.90;;;;;;5100347;28;20349;-68
2022/11/10 00:12:41;;;;;;;18.27;5.53;;;9.60;99.90;;;;;;5099867;28;20035;-60
2022/11/10 00:17:52;;;;;;;13.13;4.50;;;9.60;99.90;;;;;;5100822;28;20040;-60
2022/11/10 00:20:18;;;;;;;16.98;4.97;;;9.50;99.90;;;;;;5108488;28;20036;-60
2022/11/10 00:22:43;;;;;;;15.50;5.38;;;9.50;99.90;;;;;;5101293;28;20031;-60
2022/11/10 00:25:09;;;;;;;18.35;4.95;;;9.50;99.90;;;;;;5101579;28;20063;-60
2022/11/10 00:27:35;;;;;;;18.25;5.50;;;9.50;99.90;;;;;;5100740;28;20035;-60
2022/11/10 00:30:01;;;;;;;16.45;4.85;;;9.50;99.90;;;;;;5106635;28;20051;-61
2022/11/10 00:32:27;;;;;;;19.08;5.63;;;9.50;99.90;;;;;;5109099;28;20036;-60
2022/11/10 00:34:52;;;;;;;16.38;5.15;;;9.50;99.90;;;;;;5106051;28;20050;-61
2022/11/10 00:37:18;;;;;;;18.63;5.55;;;9.50;99.90;;;;;;5098620;28;20050;-62
2022/11/10 00:39:44;;;;;;;16.33;4.95;;;9.50;99.90;;;;;;5068973;28;20134;-61
2022/11/10 00:42:10;;;;;;;18.05;5.53;;;9.50;99.90;;;;;;5081449;28;20039;-60
2022/11/10 00:44:36;;;;;;;19.25;5.50;;;9.50;99.90;;;;;;5064360;28;20071;-62
2022/11/10 00:47:01;;;;;;;18.55;5.63;;;9.50;99.90;;;;;;5083578;28;20128;-61
2022/11/10 00:49:27;;;;;;;15.80;5.22;;;9.50;99.90;;;;;;5082984;28;20368;-61
2022/11/10 00:51:53;;;;;;;14.85;5.10;;;9.50;99.90;;;;;;5082896;28;20115;-61
2022/11/10 00:54:18;;;;;;;21.65;5.90;;;9.50;99.90;;;;;;5085791;28;20465;-63
2022/11/10 00:56:44;;;;;;;21.42;5.95;;;9.50;99.90;;;;;;5079632;28;20110;-60
2022/11/10 00:59:09;;;;;;;14.75;5.15;;;9.50;99.90;;;;;;5085055;28;20040;-60
2022/11/10 01:01:35;;;;;;;17.73;5.15;;;9.50;99.90;;;;;;5082815;28;20440;-62
2022/11/10 01:04:01;;;;;;;15.35;5.05;;;9.50;99.90;;;;;;5064616;28;20039;-60
2022/11/10 01:06:26;;;;;;;19.90;5.85;;;9.50;99.90;;;;;;5081238;28;20094;-61
2022/11/10 01:08:52;;;;;;;17.15;6.05;;;9.50;99.90;;;;;;5082067;28;20471;-61
2022/11/10 01:11:21;;;;;;;18.13;5.88;;;9.40;99.90;;;;;;5080254;28;20063;-60
2022/11/10 01:13:48;;;;;;;16.55;5.32;;;9.40;99.90;;;;;;5063715;28;20036;-61
2022/11/10 01:16:18;;;;;;;13.98;5.28;;;9.40;99.90;;;;;;5082905;28;20036;-60
2022/11/10 01:18:47;;;;;;;17.20;4.57;;;9.40;99.90;;;;;;5082877;28;20122;-61
2022/11/10 01:21:13;;;;;;;17.60;4.43;;;9.40;99.90;;;;;;5086445;28;20032;-61
2022/11/10 01:23:38;;;;;;;21.23;5.90;;;9.40;99.90;;;;;;5082641;28;20039;-60
2022/11/10 01:26:06;;;;;;;14.13;4.75;;;9.40;99.90;;;;;;5084947;28;20064;-60
2022/11/10 01:28:33;;;;;;;12.98;4.63;;;9.40;99.90;;;;;;5087897;28;20152;-60
2022/11/10 01:31:11;;;;;;;16.88;4.82;;;9.40;99.90;;;;;;5073422;28;20109;-61
2022/11/10 01:33:37;;;;;;;16.77;4.30;;;9.40;99.90;;;;;;5084189;28;20115;-60
2022/11/10 01:36:04;;;;;;;16.80;4.45;;;9.40;99.90;;;;;;5076030;28;20433;-60
2022/11/10 01:38:33;;;;;;;12.68;4.40;;;9.40;99.90;;;;;;5087283;28;20349;-60
2022/11/10 01:40:59;;;;;;;13.48;3.83;;;9.40;99.90;;;;;;5064530;28;20085;-61
2022/11/10 01:43:26;;;;;;;13.98;3.63;;;9.40;99.90;;;;;;5104456;28;20032;-61
2022/11/10 01:46:01;;;;;;;12.82;4.05;;;9.40;99.90;;;;;;5104569;28;20456;-61
2022/11/10 01:48:32;;;;;;;14.35;3.53;;;9.50;99.90;;;;;;5102733;28;20036;-60
2022/11/10 01:51:04;;;;;;;16.55;4.03;;;9.50;99.90;;;;;;5102130;28;20075;-60
2022/11/10 01:53:33;;;;;;;15.40;5.13;;;9.50;99.90;;;;;;5104182;28;20058;-60
2022/11/10 01:55:59;;;;;;;12.80;4.78;;;9.60;99.90;;;;;;5107646;28;20429;-60
2022/11/10 01:58:31;;;;;;;14.98;4.60;;;9.60;99.90;;;;;;5105674;28;20110;-61
2022/11/10 02:00:56;;;;;;;14.43;5.35;;;9.70;99.90;;;;;;5100789;28;20106;-61
2022/11/10 02:03:34;;;;;;;18.23;5.65;;;9.70;99.90;;;;;;5082780;28;20638;-60
2022/11/10 02:06:00;;;;;;;17.27;5.72;;;9.70;99.90;;;;;;5098853;28;20479;-61
2022/11/10 02:08:26;;;;;;;16.95;5.60;;;9.70;99.90;;;;;;5078622;28;20546;-61
2022/11/10 02:10:52;;;;;;;20.58;6.35;;;9.70;99.90;;;;;;5085876;28;20370;-60
2022/11/10 02:13:18;;;;;;;13.90;5.85;;;9.70;99.90;;;;;;5098721;28;20058;-63
2022/11/10 02:15:44;;;;;;;19.15;6.65;;;9.80;99.90;;;;;;5103833;28;20036;-60
2022/11/10 02:18:10;;;;;;;19.67;6.85;;;9.70;99.90;;;;;;5089033;28;20037;-60
2022/11/10 02:20:35;;;;;;;19.23;6.75;;;9.70;99.90;;;;;;5097232;28;20043;-61
2022/11/10 02:23:35;;;;;;;19.08;7.00;;;9.70;99.90;;;;;;5066574;28;20031;-61
2022/11/10 02:26:05;;;;;;;19.73;7.00;;;9.70;99.90;;;;;;5082860;28;20370;-60
2022/11/10 02:28:36;;;;;;;26.55;7.60;;;9.70;99.90;;;;;;5104518;28;20051;-61
2022/11/10 02:31:02;;;;;;;25.27;7.43;;;9.70;99.90;;;;;;5101391;28;20035;-61
2022/11/10 02:33:28;;;;;;;18.88;7.78;;;9.70;99.90;;;;;;5101967;28;20782;-59
2022/11/10 02:35:54;;;;;;;18.33;8.00;;;9.70;99.90;;;;;;5097860;28;20139;-59
2022/11/10 02:38:19;;;;;;;21.77;8.07;;;9.70;99.90;;;;;;5081907;28;20117;-60
2022/11/10 02:40:47;;;;;;;18.92;6.93;;;9.70;99.90;;;;;;5102037;28;20047;-61
2022/11/10 02:43:15;;;;;;;22.80;7.45;;;9.70;99.90;;;;;;5105393;28;20444;-59
2022/11/10 02:45:44;;;;;;;23.17;8.85;;;9.70;99.90;;;;;;5106474;28;20092;-66
2022/11/10 02:48:11;;;;;;;19.60;7.70;;;9.70;99.90;;;;;;5102314;28;20058;-62
2022/11/10 02:50:36;;;;;;;22.52;7.85;;;9.70;99.90;;;;;;5098164;28;20415;-59
2022/11/10 02:53:03;;;;;;;19.50;7.35;;;9.70;99.90;;;;;;5099880;28;20229;-60
2022/11/10 02:55:28;;;;;;;20.48;7.55;;;9.70;99.90;;;;;;5101145;28;20334;-59
2022/11/10 02:57:54;;;;;;;22.45;7.45;;;9.70;99.90;;;;;;5103774;28;20054;-60
2022/11/10 03:00:20;;;;;;;26.75;7.95;;;9.70;99.90;;;;;;5099321;28;20036;-59
2022/11/10 03:02:45;;;;;;;18.95;7.60;;;9.70;99.90;;;;;;5081149;28;20138;-60
2022/11/10 03:05:11;;;;;;;21.52;7.63;;;9.70;99.90;;;;;;5105303;28;20036;-60
2022/11/10 03:07:37;;;;;;;18.23;6.90;;;9.70;99.90;;;;;;5104695;28;20027;-59
2022/11/10 03:10:04;;;;;;;21.45;7.40;;;9.60;99.90;;;;;;5097913;28;20067;-60
2022/11/10 03:12:29;;;;;;;18.70;8.05;;;9.70;99.90;;;;;;5106155;28;20100;-61
2022/11/10 03:14:55;;;;;;;22.25;7.75;;;9.60;99.90;;;;;;5079061;28;20093;-60
2022/11/10 03:17:21;;;;;;;22.73;8.07;;;9.60;99.90;;;;;;5100863;28;20134;-60
2022/11/10 03:19:46;;;;;;;18.58;6.70;;;9.60;99.90;;;;;;5103247;28;20582;-60
2022/11/10 03:22:12;;;;;;;17.50;6.75;;;9.60;99.90;;;;;;5097222;28;20070;-60
2022/11/10 03:24:37;;;;;;;20.35;7.05;;;9.50;99.90;;;;;;5103241;28;20044;-60
2022/11/10 03:27:03;;;;;;;20.52;6.68;;;9.60;99.90;;;;;;5102721;28;20061;-61
2022/11/10 03:29:28;;;;;;;19.15;7.18;;;9.50;99.90;;;;;;5097878;28;20077;-60
2022/11/10 03:31:54;;;;;;;22.30;7.47;;;9.50;99.90;;;;;;5100068;28;20036;-60
2022/11/10 03:34:19;;;;;;;22.55;7.10;;;9.50;99.90;;;;;;5102634;28;20044;-60
2022/11/10 03:36:45;;;;;;;23.90;7.03;;;9.50;99.90;;;;;;5102867;28;20059;-60
2022/11/10 03:39:11;;;;;;;20.02;7.55;;;9.60;99.90;;;;;;5094664;28;20054;-60
2022/11/10 03:41:36;;;;;;;23.58;7.07;;;9.50;99.90;;;;;;5100926;28;20111;-61
2022/11/10 03:44:02;;;;;;;20.17;6.78;;;9.50;99.90;;;;;;5096976;28;20269;-60
2022/11/10 03:46:27;;;;;;;22.65;7.10;;;9.50;99.90;;;;;;5102608;28;20497;-59
2022/11/10 03:48:53;;;;;;;18.73;6.45;;;9.50;99.90;;;;;;5098465;28;20369;-60
2022/11/10 03:51:20;;;;;;;22.45;7.00;;;9.50;99.90;;;;;;5102146;28;20107;-59
2022/11/10 03:53:45;;;;;;;22.55;7.55;;;9.50;99.90;;;;;;5102365;28;20043;-59
2022/11/10 03:56:11;;;;;;;16.60;6.50;;;9.50;99.90;;;;;;5101534;28;20039;-60
2022/11/10 03:58:37;;;;;;;20.30;7.68;;;9.50;99.90;;;;;;5103392;28;20041;-59
2022/11/10 04:01:03;;;;;;;23.58;7.13;;;9.50;99.90;;;;;;5088550;28;20471;-60
2022/11/10 04:03:28;;;;;;;23.83;8.23;;;9.60;99.90;;;;;;5104132;28;20302;-61
2022/11/10 04:16:52;;;;;;;21.48;7.28;;;9.60;99.90;;;;;;5101468;28;20500;-59
2022/11/10 04:19:18;;;;;;;22.15;7.30;;;9.60;99.90;;;;;;5085840;28;20047;-59
2022/11/10 04:21:43;;;;;;;16.20;7.60;;;9.60;99.90;;;;;;5107491;28;20154;-61
2022/11/10 04:24:09;;;;;;;23.90;8.75;;;9.60;99.90;;;;;;5103387;28;20040;-60
2022/11/10 04:26:39;;;;;;;25.58;8.68;;;9.60;99.90;;;;;;5104683;28;20031;-60
2022/11/10 04:29:07;;;;;;;23.50;7.63;;;9.60;99.90;;;;;;5098808;28;20044;-61
2022/11/10 04:31:36;;;;;;;27.20;9.18;;;9.60;99.90;;;;;;5103071;28;20316;-60
2022/11/10 04:34:02;;;;;;;25.55;8.77;;;9.60;99.90;;;;;;5100550;28;20063;-60
2022/11/10 04:36:31;;;;;;;25.92;8.98;;;9.60;99.90;;;;;;5098507;28;20043;-60
2022/11/10 04:38:57;;;;;;;20.92;8.50;;;9.60;99.90;;;;;;5098702;28;20095;-60
2022/11/10 04:41:24;;;;;;;27.75;9.38;;;9.60;99.90;;;;;;5099756;28;20063;-60
2022/11/10 04:43:50;;;;;;;22.08;8.07;;;9.60;99.90;;;;;;5081038;28;20044;-59
2022/11/10 04:46:35;;;;;;;23.65;8.65;;;9.60;99.90;;;;;;5103448;28;20050;-60
2022/11/10 04:49:02;;;;;;;22.08;8.02;;;9.60;99.90;;;;;;5087423;28;20043;-60
2022/11/10 04:51:33;;;;;;;25.05;8.50;;;9.60;99.90;;;;;;5103053;28;20046;-60
2022/11/10 04:53:59;;;;;;;26.80;9.07;;;9.60;99.90;;;;;;5085392;28;20418;-60
2022/11/10 04:56:26;;;;;;;30.92;9.15;;;9.60;99.90;;;;;;5108133;28;20031;-62
2022/11/10 04:58:52;;;;;;;29.80;10.00;;;9.60;99.90;;;;;;5084080;28;20531;-61
2022/11/10 05:01:20;;;;;;;26.23;8.85;;;9.60;99.90;;;;;;5106079;28;20035;-60
2022/11/10 05:03:46;;;;;;;22.23;8.95;;;9.60;99.90;;;;;;5083945;28;20433;-61
2022/11/10 05:06:13;;;;;;;26.40;9.55;;;9.60;99.90;;;;;;5100290;28;20040;-60
2022/11/10 05:08:40;;;;;;;31.48;10.23;;;9.60;99.90;;;;;;5099447;28;20040;-60
2022/11/10 05:11:05;;;;;;;24.20;9.50;;;9.60;99.90;;;;;;5097321;28;20055;-60
2022/11/10 05:13:31;;;;;;;20.10;8.43;;;9.60;99.90;;;;;;5102961;28;20036;-59
2022/11/10 05:15:57;;;;;;;24.20;9.05;;;9.60;99.90;;;;;;5105264;28;20039;-61
2022/11/10 05:18:23;;;;;;;29.65;9.77;;;9.60;99.90;;;;;;5084343;28;20048;-60
2022/11/10 05:20:49;;;;;;;22.27;8.40;;;9.60;99.90;;;;;;5084968;28;20032;-60
2022/11/10 05:25:59;;;;;;;22.85;9.52;;;9.60;99.90;;;;;;5099475;28;20085;-60
2022/11/10 05:28:25;;;;;;;25.10;8.60;;;9.70;99.90;;;;;;5107757;28;20490;-60
2022/11/10 05:30:51;;;;;;;22.10;8.57;;;9.60;99.90;;;;;;5097595;28;20043;-60
2022/11/10 05:33:16;;;;;;;26.67;8.93;;;9.60;99.90;;;;;;5098698;28;20088;-62
2022/11/10 05:35:43;;;;;;;22.27;8.02;;;9.60;99.90;;;;;;5102191;28;20174;-60
2022/11/10 05:38:09;;;;;;;30.92;9.63;;;9.60;99.90;;;;;;5084941;28;20032;-60
2022/11/10 05:40:35;;;;;;;24.27;8.45;;;9.60;99.90;;;;;;5084596;28;20083;-61
2022/11/10 05:43:00;;;;;;;27.88;8.02;;;9.60;99.90;;;;;;5100087;28;20078;-60
2022/11/10 05:45:28;;;;;;;27.65;8.27;;;9.60;99.90;;;;;;5102698;28;20169;-60
2022/11/10 05:47:54;;;;;;;23.55;8.40;;;9.60;99.90;;;;;;5103885;28;20051;-61
2022/11/10 05:50:21;;;;;;;22.10;8.80;;;9.60;99.90;;;;;;5103657;28;20436;-61
2022/11/10 05:52:49;;;;;;;26.23;9.60;;;9.60;99.90;;;;;;5100159;28;20154;-61
2022/11/10 05:55:16;;;;;;;22.42;8.32;;;9.60;99.90;;;;;;5102605;28;20259;-60
2022/11/10 05:57:46;;;;;;;25.27;9.48;;;9.50;99.90;;;;;;5086605;28;20492;-60
2022/11/10 06:00:17;;;;;;;24.83;8.88;;;9.50;99.90;;;;;;5107338;28;20035;-60
2022/11/10 06:02:43;;;;;;;29.45;8.63;;;9.50;99.90;;;;;;5105101;28;20032;-60
2022/11/10 06:05:09;;;;;;;25.48;9.15;;;9.50;99.90;;;;;;5098511;28;20105;-62
2022/11/10 06:07:37;;;;;;;27.38;9.30;;;9.50;99.90;;;;;;5107396;28;20648;-62
2022/11/10 06:10:03;;;;;;;21.55;8.82;;;9.50;99.90;;;;;;5103580;28;20051;-60
2022/11/10 06:12:29;;;;;;;27.63;9.57;;;9.40;99.90;;;;;;5100752;28;20046;-61
2022/11/10 06:14:57;;;;;;;22.98;8.82;;;9.40;99.90;;;;;;5104625;28;20055;-60
2022/11/10 06:17:26;;;;;;;31.05;10.07;;;9.40;99.90;;;;;;5103492;28;20377;-60
2022/11/10 06:19:51;;;;;;;26.75;9.27;;;9.40;99.90;;;;;;5082978;28;20031;-61
2022/11/10 06:22:17;;;;;;;23.10;9.65;;;9.40;99.90;;;;;;5100998;28;20067;-61
2022/11/10 06:24:43;;;;;;;27.30;9.65;;;9.40;99.90;;;;;;5099410;28;20448;-60
2022/11/10 06:27:08;;;;;;;27.38;10.20;;;9.40;99.90;;;;;;5088166;28;20103;-61
2022/11/10 06:29:34;;;;;;;22.90;9.75;;;9.40;99.90;;;;;;5103128;28;20436;-61
2022/11/10 06:31:59;;;;;;;24.80;9.63;;;9.30;99.90;;;;;;5100246;28;20103;-61
2022/11/10 06:34:25;;;;;;;23.83;9.50;;;9.40;99.90;;;;;;5077964;28;20032;-63
2022/11/10 06:36:51;;;;;;;21.90;9.65;;;9.40;99.90;;;;;;5105734;28;20087;-61
2022/11/10 06:39:16;;;;;;;26.10;10.23;;;9.40;99.90;;;;;;5100444;28;20364;-61
2022/11/10 06:41:42;;;;;;;32.03;11.85;;;9.40;99.90;;;;;;5103486;28;21080;-61
2022/11/10 06:44:07;;;;;;;24.80;10.18;;;9.40;99.90;;;;;;5098130;28;20054;-63
2022/11/10 06:46:33;;;;;;;20.30;11.00;;;9.40;99.90;;;;;;5098152;28;20031;-61
2022/11/10 06:48:59;;;;;;;28.15;10.80;;;9.40;99.90;;;;;;5099957;28;20046;-64
2022/11/10 06:51:24;;;;;;;22.42;11.63;;;9.40;99.90;;;;;;5082426;28;20035;-63
2022/11/10 06:53:50;;;;;;;23.30;11.32;;;9.40;99.90;;;;;;5079225;28;20472;-64
2022/11/10 06:56:15;;;;;;;23.27;11.40;;;9.40;99.90;;;;;;5098046;28;20040;-64
2022/11/10 06:58:41;;;;;;;26.77;12.52;;;9.50;99.90;;;;;;5087195;28;20039;-62
2022/11/10 07:01:06;;;;;;;28.35;11.52;;;9.40;99.90;;;;;;5103617;28;20093;-61
2022/11/10 07:03:32;;;;;;;31.73;11.95;;;9.50;99.90;;;;;;5075164;28;20047;-61
2022/11/10 07:05:57;;;;;;;27.23;11.85;;;9.40;99.90;;;;;;5098989;28;20055;-60
2022/11/10 07:08:23;;;;;;;26.35;11.40;;;9.50;99.90;;;;;;5097592;28;20043;-60
2022/11/10 07:10:52;;;;;;;25.75;11.43;;;9.50;99.90;;;;;;5102458;28;20373;-61
2022/11/10 07:13:18;;;;;;;28.55;11.50;;;9.50;99.90;;;;;;5099024;28;20040;-62
2022/11/10 07:15:44;;;;;;;26.10;10.63;;;9.50;99.90;;;;;;5103030;28;20662;-60
2022/11/10 07:18:09;;;;;;;28.65;11.38;;;9.50;99.90;;;;;;5096893;28;20027;-61
2022/11/10 07:20:35;;;;;;;23.45;11.50;;;9.50;99.90;;;;;;5099500;28;20118;-61
2022/11/10 07:23:03;;;;;;;22.83;10.95;;;9.60;99.90;;;;;;5108370;28;20114;-60
2022/11/10 07:25:30;;;;;;;24.95;11.75;;;9.60;99.90;;;;;;5104467;28;20105;-62
2022/11/10 07:27:58;;;;;;;25.75;11.18;;;9.60;99.90;;;;;;5102852;28;20050;-60
2022/11/10 07:30:25;;;;;;;24.80;10.43;;;9.70;99.90;;;;;;5101865;28;20051;-60
2022/11/10 07:33:04;;;;;;;25.60;11.18;;;9.60;99.90;;;;;;5103314;28;20036;-60
2022/11/10 07:35:30;;;;;;;25.27;10.73;;;9.70;99.90;;;;;;5103512;28;20127;-62
2022/11/10 07:37:57;;;;;;;27.48;10.75;;;9.70;99.90;;;;;;5100250;28;20480;-60
2022/11/10 07:40:23;;;;;;;25.98;10.93;;;9.70;99.90;;;;;;5104171;28;20043;-60
2022/11/10 07:42:48;;;;;;;29.67;11.23;;;9.70;99.90;;;;;;5105116;28;20053;-60
2022/11/10 07:45:14;;;;;;;31.50;11.48;;;9.70;99.90;;;;;;5101919;28;20352;-60
2022/11/10 07:47:40;;;;;;;25.75;10.68;;;9.70;99.90;;;;;;5100615;28;20035;-61
2022/11/10 07:50:06;;;;;;;25.35;10.60;;;9.70;99.90;;;;;;5083246;28;20039;-60
2022/11/10 07:52:31;;;;;;;27.88;11.20;;;9.70;99.90;;;;;;5107813;28;20468;-61
2022/11/10 07:54:57;;;;;;;25.80;9.73;;;9.80;99.90;;;;;;5103374;28;20090;-60
2022/11/10 07:57:23;;;;;;;29.20;10.10;;;9.90;99.90;;;;;;5105054;28;20044;-60
2022/11/10 07:59:48;;;;;;;25.33;9.77;;;9.90;99.90;;;;;;5104553;28;20043;-60
2022/11/10 08:02:14;;;;;;;25.65;9.93;;;10.00;99.90;;;;;;5100932;28;20440;-60
2022/11/10 08:04:39;;;;;;;25.38;9.50;;;10.10;99.90;;;;;;5103371;28;20035;-61
2022/11/10 08:07:05;;;;;;;27.85;9.55;;;10.10;99.90;;;;;;5103856;28;20092;-60
2022/11/10 08:09:31;;;;;;;24.13;8.82;;;10.20;99.90;;;;;;5100889;28;20413;-64
2022/11/10 08:11:56;;;;;;;23.73;8.57;;;10.30;99.90;;;;;;5102339;28;20036;-61
2022/11/10 08:14:22;;;;;;;26.60;9.95;;;10.30;99.90;;;;;;5103430;28;20432;-62
2022/11/10 08:16:47;;;;;;;20.00;8.68;;;10.40;99.90;;;;;;5106117;28;20400;-60
2022/11/10 08:19:13;;;;;;;21.33;8.13;;;10.50;99.90;;;;;;5083336;28;20042;-60
2022/11/10 08:21:38;;;;;;;21.92;7.70;;;10.60;99.90;;;;;;5107992;28;20184;-61
2022/11/10 08:24:04;;;;;;;30.27;8.40;;;10.70;99.90;;;;;;5084030;28;20039;-61
2022/11/10 08:26:30;;;;;;;26.13;7.97;;;10.80;99.90;;;;;;5103577;28;20126;-61
2022/11/10 08:28:56;;;;;;;22.17;7.78;;;11.00;99.90;;;;;;5103779;28;20130;-61
2022/11/10 08:31:22;;;;;;;22.17;8.00;;;11.10;99.90;;;;;;5102684;28;20044;-61
2022/11/10 08:33:48;;;;;;;22.33;7.50;;;11.10;99.90;;;;;;5099601;28;20055;-61
2022/11/10 08:36:13;;;;;;;16.70;7.15;;;11.30;99.90;;;;;;5097872;28;20430;-61
2022/11/10 08:38:39;;;;;;;21.55;7.30;;;11.40;99.90;;;;;;5106095;28;20047;-61
2022/11/10 08:41:04;;;;;;;24.08;7.38;;;11.50;99.90;;;;;;5103443;28;20051;-61
2022/11/10 08:43:30;;;;;;;24.33;7.82;;;11.60;99.90;;;;;;5103171;28;20575;-61
2022/11/10 08:45:56;;;;;;;22.80;7.70;;;11.60;99.90;;;;;;5100948;28;20383;-62
2022/11/10 08:48:21;;;;;;;22.20;7.78;;;11.60;99.90;;;;;;5105030;28;20096;-62
2022/11/10 08:50:51;;;;;;;21.73;7.35;;;11.60;99.90;;;;;;5101904;28;20071;-62
2022/11/10 08:53:19;;;;;;;24.88;6.95;;;11.60;99.90;;;;;;5106773;28;20093;-62
2022/11/10 08:55:45;;;;;;;25.98;7.70;;;11.60;99.90;;;;;;5105980;28;20051;-61
2022/11/10 08:58:14;;;;;;;21.05;6.90;;;11.60;99.90;;;;;;5101980;28;20028;-63
2022/11/10 09:00:39;;;;;;;18.50;6.97;;;11.60;99.90;;;;;;5106505;28;20031;-61
2022/11/10 09:03:10;;;;;;;20.63;8.15;;;11.50;99.90;;;;;;5099532;28;20028;-61
2022/11/10 09:05:36;;;;;;;21.10;8.32;;;11.50;99.90;;;;;;5105031;28;20039;-61
2022/11/10 09:08:03;;;;;;;24.80;10.05;;;11.50;99.90;;;;;;5108948;28;20042;-61
2022/11/10 09:10:29;;;;;;;30.33;11.15;;;11.60;99.90;;;;;;5103845;28;20048;-61
2022/11/10 09:12:59;;;;;;;26.63;11.63;;;11.60;99.90;;;;;;5106724;28;20040;-62
2022/11/10 09:15:24;;;;;;;30.92;14.15;;;11.70;99.90;;;;;;5103118;28;20142;-61
2022/11/10 09:17:50;;;;;;;30.83;14.35;;;11.70;99.90;;;;;;5089529;28;20043;-61
2022/11/10 09:20:16;;;;;;;28.92;14.48;;;11.80;99.90;;;;;;5107608;28;20050;-62
2022/11/10 09:22:41;;;;;;;29.40;15.20;;;11.90;99.90;;;;;;5105744;28;20389;-62
2022/11/10 09:25:07;;;;;;;30.10;13.85;;;12.00;99.90;;;;;;5082901;28;20459;-61
2022/11/10 09:27:37;;;;;;;26.30;14.38;;;12.10;99.90;;;;;;5102858;28;20399;-62
2022/11/10 09:30:05;;;;;;;29.75;12.38;;;12.20;99.90;;;;;;5065654;28;20441;-61
2022/11/10 09:32:31;;;;;;;26.98;11.32;;;12.20;99.90;;;;;;5102856;28;20082;-61
2022/11/10 09:34:57;;;;;;;20.60;8.02;;;12.30;99.90;;;;;;5102250;28;20039;-63
2022/11/10 09:37:23;;;;;;;18.50;6.78;;;12.40;99.90;;;;;;5104152;28;20040;-61
2022/11/10 09:39:48;;;;;;;19.70;7.18;;;12.50;99.90;;;;;;5099909;28;20071;-61
2022/11/10 09:42:30;;;;;;;16.63;6.10;;;12.60;99.90;;;;;;5083277;28;20039;-59
2022/11/10 09:45:10;;;;;;;21.90;6.47;;;12.60;99.90;;;;;;5101885;28;20044;-59
2022/11/10 09:47:44;;;;;;;18.73;5.40;;;12.70;99.90;;;;;;5102866;28;20059;-61
2022/11/10 09:50:20;;;;;;;18.25;5.60;;;12.70;99.90;;;;;;5080170;28;20035;-61
2022/11/10 09:52:48;;;;;;;16.63;5.60;;;12.70;99.90;;;;;;5099882;28;20036;-61
2022/11/10 09:55:39;;;;;;;16.83;5.07;;;12.70;99.90;;;;;;5099653;28;20104;-61
2022/11/10 09:58:08;;;;;;;16.23;5.53;;;12.80;99.90;;;;;;5084421;28;20036;-61
2022/11/10 10:00:34;;;;;;;18.80;5.55;;;12.80;99.90;;;;;;5103320;28;20075;-61
2022/11/10 10:03:03;;;;;;;19.77;5.60;;;12.90;99.90;;;;;;5081131;28;20090;-61
2022/11/10 10:05:40;;;;;;;17.88;5.07;;;13.00;99.90;;;;;;5101914;28;20062;-61
2022/11/10 10:08:21;;;;;;;17.52;4.88;;;13.00;99.90;;;;;;5102089;28;20056;-61
2022/11/10 10:11:07;;;;;;;16.88;5.15;;;13.10;99.90;;;;;;5107300;28;20107;-61
2022/11/10 10:13:47;;;;;;;12.73;4.57;;;13.20;99.90;;;;;;5107950;28;20171;-61
2022/11/10 10:16:38;;;;;;;14.55;4.63;;;13.20;99.90;;;;;;5101799;28;20080;-60
2022/11/10 10:19:20;;;;;;;15.57;4.63;;;13.20;99.90;;;;;;5104271;28;20118;-66
2022/11/10 10:22:25;;;;;;;13.55;4.70;;;13.30;99.90;;;;;;5107355;28;20460;-61
2022/11/10 10:24:55;;;;;;;17.83;4.97;;;13.30;99.90;;;;;;5103685;28;20102;-60
2022/11/10 10:27:24;;;;;;;20.58;4.93;;;13.40;99.90;;;;;;5098680;28;20138;-62
2022/11/10 10:29:51;;;;;;;15.60;4.53;;;13.40;99.90;;;;;;5101090;28;20040;-60
2022/11/10 10:32:17;;;;;;;17.08;5.20;;;13.50;99.90;;;;;;5102259;28;20035;-60
2022/11/10 10:34:44;;;;;;;22.27;5.18;;;13.50;99.90;;;;;;5099460;28;20043;-63
2022/11/10 10:37:25;;;;;;;19.80;5.07;;;13.70;99.90;;;;;;5100679;28;20115;-61
2022/11/10 10:39:54;;;;;;;21.30;5.10;;;13.70;99.90;;;;;;5100813;28;20044;-62
2022/11/10 10:42:34;;;;;;;14.82;4.88;;;13.70;99.90;;;;;;5102413;28;20032;-61
2022/11/10 10:45:17;;;;;;;18.83;4.65;;;13.80;99.90;;;;;;5085229;28;20067;-60
2022/11/10 10:47:43;;;;;;;15.20;3.95;;;13.70;99.90;;;;;;5079201;28;20123;-62
2022/11/10 10:50:35;;;;;;;18.75;4.55;;;13.80;99.90;;;;;;5101796;28;20082;-61
2022/11/10 10:53:17;;;;;;;16.95;4.35;;;13.80;99.90;;;;;;5102685;28;20363;-60
2022/11/10 10:55:53;;;;;;;15.85;4.75;;;13.90;99.90;;;;;;5098783;28;20268;-61
2022/11/10 10:58:21;;;;;;;17.88;4.82;;;13.90;99.90;;;;;;5100693;28;20113;-60
2022/11/10 11:01:06;;;;;;;13.93;3.92;;;13.90;99.90;;;;;;5101799;28;20098;-61
2022/11/10 11:03:48;;;;;;;17.50;4.57;;;14.00;99.90;;;;;;5107601;28;20110;-61
2022/11/10 11:06:17;;;;;;;17.35;4.32;;;14.00;99.90;;;;;;5104467;28;20465;-61
2022/11/10 11:08:56;;;;;;;14.77;4.43;;;14.00;99.90;;;;;;5102323;28;20048;-62
2022/11/10 11:11:31;;;;;;;17.80;4.50;;;14.00;99.90;;;;;;5103205;28;20036;-61
2022/11/10 11:14:23;;;;;;;22.13;4.20;;;14.10;99.90;;;;;;5070198;28;20059;-61
2022/11/10 11:16:50;;;;;;;13.98;4.45;;;14.10;99.90;;;;;;5107558;28;20036;-61
2022/11/10 11:19:18;;;;;;;17.52;5.03;;;14.00;99.90;;;;;;5102817;28;20032;-61
2022/11/10 11:22:04;;;;;;;16.15;4.70;;;14.20;99.90;;;;;;5108666;28;20037;-62
2022/11/10 11:24:39;;;;;;;18.30;3.83;;;14.20;99.90;;;;;;5099444;28;20082;-61
2022/11/10 11:27:12;;;;;;;13.10;4.47;;;14.30;99.90;;;;;;5102399;28;20118;-61
2022/11/10 11:29:47;;;;;;;19.48;4.80;;;14.30;99.90;;;;;;5100972;28;20116;-60
2022/11/10 11:32:23;;;;;;;18.20;4.22;;;14.20;99.90;;;;;;5102436;28;20039;-62
2022/11/10 11:35:23;;;;;;;20.05;4.82;;;14.30;99.90;;;;;;5102409;28;20032;-61
2022/11/10 11:37:54;;;;;;;17.60;4.60;;;14.30;99.90;;;;;;5105104;28;20131;-61
2022/11/10 11:40:53;;;;;;;15.93;4.50;;;14.30;99.90;;;;;;5100205;28;20460;-61
2022/11/10 11:43:54;;;;;;;16.65;4.13;;;14.40;99.90;;;;;;5100216;28;20406;-61
2022/11/10 11:46:38;;;;;;;18.13;4.22;;;14.40;99.90;;;;;;5107052;28;20044;-60
2022/11/10 11:49:42;;;;;;;14.48;4.28;;;14.30;99.90;;;;;;5104268;28;20051;-61
2022/11/10 11:52:33;;;;;;;15.07;3.75;;;14.30;99.90;;;;;;5097826;28;20046;-61
2022/11/10 11:55:17;;;;;;;20.83;4.20;;;14.30;99.90;;;;;;5104886;28;20035;-61
2022/11/10 11:57:51;;;;;;;17.23;4.37;;;14.30;99.90;;;;;;5109545;28;20766;-60
2022/11/10 12:00:18;;;;;;;17.27;4.13;;;14.30;99.90;;;;;;5100452;28;20044;-60
2022/11/10 12:03:16;;;;;;;16.05;3.75;;;14.30;99.90;;;;;;5103313;28;20159;-61
2022/11/10 12:06:23;;;;;;;14.40;3.80;;;14.30;99.90;;;;;;5092564;28;20039;-60
2022/11/10 12:09:00;;;;;;;12.85;3.60;;;14.30;99.90;;;;;;5101650;28;20132;-61
2022/11/10 12:11:32;;;;;;;16.10;4.00;;;14.30;99.90;;;;;;5104245;28;20051;-60
2022/11/10 12:14:06;;;;;;;13.02;3.08;;;14.40;99.90;;;;;;5109650;28;20504;-60
2022/11/10 12:16:33;;;;;;;15.27;3.20;;;14.40;99.90;;;;;;5108249;28;20040;-61
2022/11/10 12:19:11;;;;;;;16.10;4.25;;;14.40;99.90;;;;;;5110125;28;20092;-60
2022/11/10 12:21:58;;;;;;;13.45;3.40;;;14.50;99.90;;;;;;5086827;28;20047;-61
2022/11/10 12:24:43;;;;;;;17.45;4.35;;;14.60;99.90;;;;;;5105574;28;20032;-60
2022/11/10 12:27:17;;;;;;;15.85;4.00;;;14.60;99.90;;;;;;5098805;28;20506;-60
2022/11/10 12:29:53;;;;;;;19.60;4.07;;;14.60;99.90;;;;;;5100440;28;20040;-60
2022/11/10 12:32:23;;;;;;;16.88;3.45;;;14.70;99.90;;;;;;5110529;28;20061;-60
2022/11/10 12:35:18;;;;;;;12.02;3.42;;;14.70;99.90;;;;;;5108050;28;20190;-59
2022/11/10 12:38:08;;;;;;;16.98;3.75;;;14.80;99.90;;;;;;5095719;28;20540;-59
2022/11/10 12:40:38;;;;;;;12.75;3.25;;;14.90;99.90;;;;;;5097100;28;20054;-60
2022/11/10 12:43:12;;;;;;;15.98;3.38;;;14.90;99.90;;;;;;5102707;28;20040;-60
2022/11/10 12:45:44;;;;;;;16.02;3.63;;;14.90;99.90;;;;;;5098390;28;20051;-61
2022/11/10 12:48:12;;;;;;;14.60;3.40;;;14.90;99.90;;;;;;5085042;28;20048;-60
2022/11/10 12:50:44;;;;;;;12.05;3.58;;;14.90;99.90;;;;;;5105168;28;20042;-60
2022/11/10 12:53:31;;;;;;;15.13;3.70;;;14.90;99.90;;;;;;5107200;28;20044;-61
2022/11/10 12:56:04;;;;;;;16.05;5.03;;;14.80;99.90;;;;;;5106580;28;20071;-61
2022/11/10 12:58:30;;;;;;;15.55;3.80;;;14.80;99.90;;;;;;5102219;28;20451;-60
2022/11/10 13:01:03;;;;;;;15.00;3.90;;;14.80;99.90;;;;;;5083732;28;20067;-63
2022/11/10 13:03:37;;;;;;;18.67;4.63;;;14.80;99.90;;;;;;5083431;28;20050;-61
2022/11/10 13:06:24;;;;;;;16.00;3.63;;;14.70;99.90;;;;;;5107407;28;20042;-60
2022/11/10 13:08:50;;;;;;;17.00;3.95;;;14.80;99.90;;;;;;5103025;28;20062;-60